sensor_id;sensor_type;location;lat;lon;timestamp;P1;P2;P0
47709;PMS7003;33473;51.640;5.892;2023-03-01T00:01:47;15.13;15.92;8.84
47709;PMS7003;33473;51.640;5.892;2023-03-01T00:15:07;13.57;15.49;9.06
47709;PMS7003;33473;51.640;5.892;2023-03-01T00:28:27;14.65;16.36;9.49
47709;PMS7003;33473;51.640;5.892;2023-03-01T00:41:46;15.85;17.56;9.82
47709;PMS7003;33473;51.640;5.892;2023-03-01T00:55:06;15.85;17.23;9.49
47709;PMS7003;33473;51.640;5.892;2023-03-01T01:08:26;17.17;17.78;9.49
47709;PMS7003;33473;51.640;5.892;2023-03-01T01:21:45;16.09;17.78;9.71
47709;PMS7003;33473;51.640;5.892;2023-03-01T01:35:05;17.29;18.76;10.36
47709;PMS7003;33473;51.640;5.892;2023-03-01T01:48:25;17.05;18.76;9.6
47709;PMS7003;33473;51.640;5.892;2023-03-01T02:01:44;16.45;18.21;10.04
47709;PMS7003;33473;51.640;5.892;2023-03-01T02:15:04;19.21;19.85;10.69
47709;PMS7003;33473;51.640;5.892;2023-03-01T02:28:24;16.45;18.1;9.49
47709;PMS7003;33473;51.640;5.892;2023-03-01T02:41:43;16.57;18.1;10.15
47709;PMS7003;33473;51.640;5.892;2023-03-01T02:55:03;17.41;18.98;10.26
47709;PMS7003;33473;51.640;5.892;2023-03-01T03:08:23;16.21;17.99;9.82
47709;PMS7003;33473;51.640;5.892;2023-03-01T03:21:42;17.65;19.08;10.8
47709;PMS7003;33473;51.640;5.892;2023-03-01T03:35:02;20.53;21.16;11.24
47709;PMS7003;33473;51.640;5.892;2023-03-01T03:48:22;18.49;19.85;10.36
47709;PMS7003;33473;51.640;5.892;2023-03-01T04:01:41;20.65;19.85;11.02
47709;PMS7003;33473;51.640;5.892;2023-03-01T04:15:01;21.13;22.03;10.69
47709;PMS7003;33473;51.640;5.892;2023-03-01T04:28:21;20.41;21.48;11.02
47709;PMS7003;33473;51.640;5.892;2023-03-01T04:41:41;20.89;21.05;11.45
47709;PMS7003;33473;51.640;5.892;2023-03-01T04:55:00;22.45;21.92;11.67
47709;PMS7003;33473;51.640;5.892;2023-03-01T05:08:20;22.33;20.72;11.67
47709;PMS7003;33473;51.640;5.892;2023-03-01T05:21:39;20.53;21.26;11.67
47709;PMS7003;33473;51.640;5.892;2023-03-01T05:34:59;20.17;20.94;11.35
47709;PMS7003;33473;51.640;5.892;2023-03-01T05:48:19;21.61;20.83;10.91
47709;PMS7003;33473;51.640;5.892;2023-03-01T06:01:38;21.61;22.14;11.89
47709;PMS7003;33473;51.640;5.892;2023-03-01T06:14:58;24.49;23.99;12.87
47709;PMS7003;33473;51.640;5.892;2023-03-01T06:28:18;25.93;24.64;13.2
47709;PMS7003;33473;51.640;5.892;2023-03-01T06:41:37;25.69;24.53;12.98
47709;PMS7003;33473;51.640;5.892;2023-03-01T06:54:57;24.85;24.32;12.54
47709;PMS7003;33473;51.640;5.892;2023-03-01T07:08:17;26.41;24.21;13.09
47709;PMS7003;33473;51.640;5.892;2023-03-01T07:21:36;26.29;24.21;13.09
47709;PMS7003;33473;51.640;5.892;2023-03-01T07:34:56;27.25;24.86;13.31
47709;PMS7003;33473;51.640;5.892;2023-03-01T07:48:16;24.13;23.66;12.98
47709;PMS7003;33473;51.640;5.892;2023-03-01T08:01:35;23.53;23.23;12.87
47709;PMS7003;33473;51.640;5.892;2023-03-01T08:14:55;23.05;22.46;12.22
47709;PMS7003;33473;51.640;5.892;2023-03-01T08:28:15;23.17;21.92;12.33
47709;PMS7003;33473;51.640;5.892;2023-03-01T08:41:34;17.41;18.76;10.47
47709;PMS7003;33473;51.640;5.892;2023-03-01T08:54:54;13.21;15.27;9.49
47709;PMS7003;33473;51.640;5.892;2023-03-01T09:08:14;11.41;13.2;7.86
47709;PMS7003;33473;51.640;5.892;2023-03-01T09:21:33;11.05;12.54;7.97
47709;PMS7003;33473;51.640;5.892;2023-03-01T09:34:53;12.13;13.2;8.18
47709;PMS7003;33473;51.640;5.892;2023-03-01T09:48:13;11.77;13.85;9.17
47709;PMS7003;33473;51.640;5.892;2023-03-01T10:01:32;11.17;13.31;8.62
47709;PMS7003;33473;51.640;5.892;2023-03-01T10:14:52;11.41;12.54;8.29
47709;PMS7003;33473;51.640;5.892;2023-03-01T10:28:12;9.97;12.11;7.75
47709;PMS7003;33473;51.640;5.892;2023-03-01T10:41:31;10.45;11.67;7.86
47709;PMS7003;33473;51.640;5.892;2023-03-01T10:54:51;9.49;11.78;7.64
47709;PMS7003;33473;51.640;5.892;2023-03-01T11:08:11;9.73;11.56;7.64
47709;PMS7003;33473;51.640;5.892;2023-03-01T11:21:30;9.73;11.24;7.64
47709;PMS7003;33473;51.640;5.892;2023-03-01T11:34:50;10.21;11.45;7.42
47709;PMS7003;33473;51.640;5.892;2023-03-01T11:48:10;8.77;11.24;7.42
47709;PMS7003;33473;51.640;5.892;2023-03-01T12:01:29;9.73;11.24;7.53
47709;PMS7003;33473;51.640;5.892;2023-03-01T12:14:49;9.37;11.24;7.53
47709;PMS7003;33473;51.640;5.892;2023-03-01T12:28:09;9.01;11.45;7.09
47709;PMS7003;33473;51.640;5.892;2023-03-01T12:41:29;8.41;10.91;7.09
47709;PMS7003;33473;51.640;5.892;2023-03-01T12:54:48;8.89;11.24;7.64
47709;PMS7003;33473;51.640;5.892;2023-03-01T13:08:08;9.49;11.89;7.53
47709;PMS7003;33473;51.640;5.892;2023-03-01T13:21:28;9.97;12.22;7.97
47709;PMS7003;33473;51.640;5.892;2023-03-01T13:34:47;9.49;11.67;7.31
47709;PMS7003;33473;51.640;5.892;2023-03-01T13:48:07;8.29;10.26;6.66
47709;PMS7003;33473;51.640;5.892;2023-03-01T14:01:27;9.37;11.67;7.2
47709;PMS7003;33473;51.640;5.892;2023-03-01T14:14:46;9.61;11.89;7.42
47709;PMS7003;33473;51.640;5.892;2023-03-01T14:28:06;9.49;11.78;7.75
47709;PMS7003;33473;51.640;5.892;2023-03-01T14:41:26;12.37;13.31;8.18
47709;PMS7003;33473;51.640;5.892;2023-03-01T14:54:45;12.97;14.18;8.51
47709;PMS7003;33473;51.640;5.892;2023-03-01T15:08:05;12.25;14.4;8.62
47709;PMS7003;33473;51.640;5.892;2023-03-01T15:21:25;12.37;14.51;8.73
47709;PMS7003;33473;51.640;5.892;2023-03-01T15:34:44;11.53;12.98;7.31
47709;PMS7003;33473;51.640;5.892;2023-03-01T15:48:04;11.65;13.2;7.97
47709;PMS7003;33473;51.640;5.892;2023-03-01T16:01:24;12.97;13.53;8.18
47709;PMS7003;33473;51.640;5.892;2023-03-01T16:14:43;10.81;12.87;7.86
47709;PMS7003;33473;51.640;5.892;2023-03-01T16:28:03;10.33;12.44;7.42
47709;PMS7003;33473;51.640;5.892;2023-03-01T16:41:23;12.01;12.33;7.42
47709;PMS7003;33473;51.640;5.892;2023-03-01T16:54:42;8.53;10.91;6.88
47709;PMS7003;33473;51.640;5.892;2023-03-01T17:08:02;10.09;12.33;7.86
47709;PMS7003;33473;51.640;5.892;2023-03-01T17:21:22;11.29;12.98;7.75
47709;PMS7003;33473;51.640;5.892;2023-03-01T17:34:42;9.73;12.11;7.64
47709;PMS7003;33473;51.640;5.892;2023-03-01T17:48:01;9.97;11.89;7.53
47709;PMS7003;33473;51.640;5.892;2023-03-01T18:01:21;10.57;12.76;7.42
47709;PMS7003;33473;51.640;5.892;2023-03-01T18:14:41;10.81;12.87;7.53
47709;PMS7003;33473;51.640;5.892;2023-03-01T18:28:00;12.01;12.0;6.55
47709;PMS7003;33473;51.640;5.892;2023-03-01T18:41:20;9.73;11.89;7.09
47709;PMS7003;33473;51.640;5.892;2023-03-01T18:54:40;11.41;12.54;7.09
47709;PMS7003;33473;51.640;5.892;2023-03-01T19:07:59;11.05;13.2;7.86
47709;PMS7003;33473;51.640;5.892;2023-03-01T19:21:19;14.29;16.03;8.29
47709;PMS7003;33473;51.640;5.892;2023-03-01T19:34:39;12.01;13.96;8.08
47709;PMS7003;33473;51.640;5.892;2023-03-01T19:47:58;11.89;14.07;8.18
47709;PMS7003;33473;51.640;5.892;2023-03-01T20:01:18;10.33;12.44;7.09
47709;PMS7003;33473;51.640;5.892;2023-03-01T20:14:38;10.69;12.76;7.09
47709;PMS7003;33473;51.640;5.892;2023-03-01T20:27:57;8.89;11.35;6.99
47709;PMS7003;33473;51.640;5.892;2023-03-01T20:41:17;9.97;12.11;6.88
47709;PMS7003;33473;51.640;5.892;2023-03-01T20:54:37;8.53;10.91;6.0
47709;PMS7003;33473;51.640;5.892;2023-03-01T21:07:56;8.77;11.24;6.11
47709;PMS7003;33473;51.640;5.892;2023-03-01T21:21:16;9.73;11.02;6.33
47709;PMS7003;33473;51.640;5.892;2023-03-01T21:34:36;9.97;10.47;6.11
47709;PMS7003;33473;51.640;5.892;2023-03-01T21:47:55;8.89;10.91;6.33
47709;PMS7003;33473;51.640;5.892;2023-03-01T22:01:15;8.77;10.8;6.33
47709;PMS7003;33473;51.640;5.892;2023-03-01T22:14:35;10.21;10.69;6.22
47709;PMS7003;33473;51.640;5.892;2023-03-01T22:27:54;9.73;12.11;6.66
47709;PMS7003;33473;51.640;5.892;2023-03-01T22:41:14;10.45;12.22;6.77
47709;PMS7003;33473;51.640;5.892;2023-03-01T22:54:34;9.37;11.56;6.44
47709;PMS7003;33473;51.640;5.892;2023-03-01T23:07:53;10.45;11.56;6.66
47709;PMS7003;33473;51.640;5.892;2023-03-01T23:21:13;11.89;13.74;7.31
47709;PMS7003;33473;51.640;5.892;2023-03-01T23:34:33;11.89;13.42;6.99
47709;PMS7003;33473;51.640;5.892;2023-03-01T23:47:52;10.45;12.65;7.09
